Lore City, Ohio
Current Conditions -  °F | °C
As of 8:53 AM on Wednesday 28 Jan 2015 (Local Time) from KZZV Reporting Station
Haze Haze  
Wind Chill:   Ceiling: Unl
Heat Index:   Visibility: 3mi
Dew Point:   Wind: 0mph
Humidity: 88%   Direction: NA
Pressure: 30.37"   Gusts: NA
Location:  39.98°N, 81.46°W
Report Text: KZZV 281353Z AUTO 00000KT 3SM BR CLR M13/M14 A3037 RMK AO2 SLP302 T11281144
Loading
Personal Weather Stations






























Interactive Weather Map New forecast layout! Learn more

10-Day Weather Forecast

Advertisements
Track Severe Weather on mobile